WetterOnline ( https://www.wetteronline.de )

Wetter aktuell Königswinter

Aktuelles Wetter: Königswinter-Heiderhof (147m)

6-stündlich | Neueste Meldungen
Ortszeit Temperatur Wetter
Di, 31.01. 19:00 5.9° C bedeckt
Di, 31.01. 13:00 6.4° C bedeckt
Di, 31.01. 7:00 2.4° C fast wolkenlos
Di, 31.01. 1:00 4.6° C bedeckt
Mo, 30.01. 19:00 5.8° C bedeckt
Mo, 30.01. 13:00 6.9° C bedeckt
Mo, 30.01. 7:00 4.8° C leichter Regen
Mo, 30.01. 1:00 1.6° C bedeckt
Ortszeit Temperatur Wetter
Mi, 01.02. 0:00 5.1° C bedeckt
Di, 31.01. 23:50 5.1° C bedeckt
Di, 31.01. 23:40 5.2° C bedeckt
Di, 31.01. 23:30 5.1° C bedeckt
Di, 31.01. 23:20 5.1° C bedeckt
Di, 31.01. 23:10 5.2° C bedeckt
Di, 31.01. 23:00 5.2° C bedeckt
Di, 31.01. 22:30 5.3° C wolkig
Di, 31.01. 22:00 5.2° C bewölkt
Di, 31.01. 21:30 5.1° C bewölkt
Di, 31.01. 21:00 5.6° C leichter Regen
Ortszeit Relative Feuchte Sichtweite
Di, 31.01. 19:00 92% 60 km
Di, 31.01. 13:00 75% 40 km
Di, 31.01. 7:00 84% 27 km
Di, 31.01. 1:00 79% 27 km
Mo, 30.01. 19:00 70% 30 km
Mo, 30.01. 13:00 68% 35 km
Mo, 30.01. 7:00 85% 17 km
Mo, 30.01. 1:00 82% 20 km
Ortszeit Relative Feuchte Sichtweite
Mi, 01.02. 0:00 92% 20 km
Di, 31.01. 23:50 92% -
Di, 31.01. 23:40 91% -
Di, 31.01. 23:30 93% 20 km
Di, 31.01. 23:20 93% -
Di, 31.01. 23:10 93% -
Di, 31.01. 23:00 94% 14 km
Di, 31.01. 22:30 92% 22 km
Di, 31.01. 22:00 93% 27 km
Di, 31.01. 21:30 90% 30 km
Di, 31.01. 21:00 89% 6 km
Ortszeit Niederschlagsmenge Niederschlagsart
Di, 31.01. 19:00 1 l/m2 in 12 Std. Regen
Di, 31.01. 13:00 0.1 l/m2 in 6 Std. Regen
Di, 31.01. 7:00 0.1 l/m2 in 12 Std. -
Di, 31.01. 1:00 0.1 l/m2 in 6 Std. Regen
Mo, 30.01. 19:00 0.5 l/m2 in 12 Std. Regen
Mo, 30.01. 13:00 0.5 l/m2 in 6 Std. Regen
Mo, 30.01. 7:00 0.1 l/m2 in 12 Std. Regen
Mo, 30.01. 1:00 0.1 l/m2 in 6 Std. Regen
Ortszeit Niederschlagsmenge Niederschlagsart
Mi, 01.02. 0:00 0.0 l/m2 in 1 Std. -
Di, 31.01. 23:50 keine Meldung -
Di, 31.01. 23:40 keine Meldung -
Di, 31.01. 23:30 0.0 l/m2 in 30 Min -
Di, 31.01. 23:20 keine Meldung -
Di, 31.01. 23:10 keine Meldung -
Di, 31.01. 23:00 0.0 l/m2 in 1 Std. -
Di, 31.01. 22:30 0.0 l/m2 in 30 Min -
Di, 31.01. 22:00 0.3 l/m2 in 1 Std. Regen
Di, 31.01. 21:30 0.2 l/m2 in 30 Min Schneeregen
Di, 31.01. 21:00 0.4 l/m2 in 1 Std. Regen
Ortszeit Stärke Spitze Richtung
km/h Bft. km/h Grad Sektor
Di, 31.01. 19:00 18 3 47 260° W
Di, 31.01. 13:00 30 5 44 240° SW
Di, 31.01. 7:00 20 4 31 200° S
Di, 31.01. 1:00 14 3 40 260° W
Mo, 30.01. 19:00 14 3 47 280° W
Mo, 30.01. 13:00 22 4 56 290° W
Mo, 30.01. 7:00 31 5 46 250° W
Mo, 30.01. 1:00 22 4 40 210° SW
Ortszeit Stärke Spitze Richtung
km/h Bft. km/h Grad Sektor
Mi, 01.02. 0:00 14 3 22 220° SW
Di, 31.01. 23:50 14 3 - 220° SW
Di, 31.01. 23:40 15 3 - 230° SW
Di, 31.01. 23:30 13 3 17 230° SW
Di, 31.01. 23:20 13 3 - 230° SW
Di, 31.01. 23:10 9 2 - 220° SW
Di, 31.01. 23:00 2 1 24 90° O
Di, 31.01. 22:30 14 3 25 250° W
Di, 31.01. 22:00 14 3 36 250° W
Di, 31.01. 21:30 17 3 37 260° W
Di, 31.01. 21:00 22 4 36 270° W
Ortszeit Untergrenze Bedeckung Gattung
total tief tief mittel hoch
Di, 31.01. 19:00 270 m 8/8 8/8 - - -
Di, 31.01. 13:00 840 m 8/8 8/8 - - -
Di, 31.01. 7:00 1020 m 1/8 1/8 - - -
Di, 31.01. 1:00 750 m 8/8 8/8 - - -
Mo, 30.01. 19:00 900 m 8/8 8/8 - - -
Mo, 30.01. 13:00 810 m 8/8 8/8 - - -
Mo, 30.01. 7:00 390 m 8/8 8/8 - - -
Mo, 30.01. 1:00 450 m 8/8 8/8 - - -
Ortszeit Bedeckungsgrad in Achtel und Wolkenuntergrenze
Mi, 01.02. 0:00 1(480m) 8(1500m)
Di, 31.01. 23:50 1(480m) 8(1500m)
Di, 31.01. 23:40 8
Di, 31.01. 23:30 7(420m) 8(1500m)
Di, 31.01. 23:20 7(420m) 8(1500m)
Di, 31.01. 23:10 8
Di, 31.01. 23:00 6(390m) 7(810m) 8(1800m)
Di, 31.01. 22:30 3(480m) 6(1800m)
Di, 31.01. 22:00 4(480m) 5(660m) 7(1800m)
Di, 31.01. 21:30 2(810m) 3(1050m) 7(1800m)
Di, 31.01. 21:00 3(690m) 5(870m) 8(1140m)
Ortszeit Luftdruck NN (hPa) Tendenz (hPa in 3 Std.)
Di, 31.01. 19:00 1023 + 0,9
Di, 31.01. 13:00 1022 - 2,4
Di, 31.01. 7:00 1025 - 0,5
Di, 31.01. 1:00 1026 + 1,2
Mo, 30.01. 19:00 1023 + 2,5
Mo, 30.01. 13:00 1019 + 0,6
Mo, 30.01. 7:00 1017 - 1,8
Mo, 30.01. 1:00 1021 - 2,0
Ortszeit Luftdruck NN (hPa) Tendenz (hPa in 3 Std.)
Mi, 01.02. 0:00 1022 - 0,8
Di, 31.01. 23:50 1022 keine Meldung
Di, 31.01. 23:40 1022 keine Meldung
Di, 31.01. 23:30 1022 - 0,2
Di, 31.01. 23:20 1022 keine Meldung
Di, 31.01. 23:10 1022 keine Meldung
Di, 31.01. 23:00 1023 + 0,2
Di, 31.01. 22:30 1023 + 0,1
Di, 31.01. 22:00 1023 - 0,3
Di, 31.01. 21:30 1022 - 0,3
Di, 31.01. 21:00 1023 + 0,3
Ortszeit Schneehöhe (cm)
Di, 31.01. 19:00 0
Di, 31.01. 13:00 0
Di, 31.01. 7:00 0
Di, 31.01. 1:00 0
Mo, 30.01. 19:00 0
Mo, 30.01. 13:00 0
Mo, 30.01. 7:00 0
Mo, 30.01. 1:00 0
Ortszeit Schneehöhe (cm)
Mi, 01.02. 0:00 0
Di, 31.01. 23:50 0
Di, 31.01. 23:40 0
Di, 31.01. 23:30 0
Di, 31.01. 23:20 0
Di, 31.01. 23:10 0
Di, 31.01. 23:00 0
Di, 31.01. 22:30 0
Di, 31.01. 22:00 0
Di, 31.01. 21:30 0
Di, 31.01. 21:00 0
Link zu dieser Seite / Seite empfehlen

Das Wetter in ...